sensor_id;sensor_type;location;lat;lon;timestamp;P1;durP1;ratioP1;P2;durP2;ratioP2
80694;SDS011;70059;42.702;23.312;2023-07-29T00:00:57;11.45;;;10.40;;
80694;SDS011;70059;42.702;23.312;2023-07-29T00:03:25;10.88;;;10.07;;
80694;SDS011;70059;42.702;23.312;2023-07-29T00:05:50;10.80;;;9.90;;
80694;SDS011;70059;42.702;23.312;2023-07-29T00:08:16;11.07;;;10.18;;
80694;SDS011;70059;42.702;23.312;2023-07-29T00:10:42;10.73;;;9.73;;
80694;SDS011;70059;42.702;23.312;2023-07-29T00:13:07;10.55;;;9.75;;
80694;SDS011;70059;42.702;23.312;2023-07-29T00:15:33;11.20;;;10.30;;
80694;SDS011;70059;42.702;23.312;2023-07-29T00:17:59;10.98;;;10.10;;
80694;SDS011;70059;42.702;23.312;2023-07-29T00:20:24;10.48;;;9.77;;
80694;SDS011;70059;42.702;23.312;2023-07-29T00:22:52;11.18;;;10.00;;
80694;SDS011;70059;42.702;23.312;2023-07-29T00:25:21;11.15;;;10.10;;
80694;SDS011;70059;42.702;23.312;2023-07-29T00:27:47;10.85;;;9.95;;
80694;SDS011;70059;42.702;23.312;2023-07-29T00:30:13;11.18;;;10.07;;
80694;SDS011;70059;42.702;23.312;2023-07-29T00:32:38;11.00;;;10.18;;
80694;SDS011;70059;42.702;23.312;2023-07-29T00:35:04;11.13;;;10.32;;
80694;SDS011;70059;42.702;23.312;2023-07-29T00:37:30;11.50;;;10.38;;
80694;SDS011;70059;42.702;23.312;2023-07-29T00:39:56;10.93;;;10.02;;
80694;SDS011;70059;42.702;23.312;2023-07-29T00:42:23;11.02;;;10.20;;
80694;SDS011;70059;42.702;23.312;2023-07-29T00:44:50;10.65;;;9.85;;
80694;SDS011;70059;42.702;23.312;2023-07-29T00:47:16;10.73;;;9.95;;
80694;SDS011;70059;42.702;23.312;2023-07-29T00:49:44;10.52;;;9.70;;
80694;SDS011;70059;42.702;23.312;2023-07-29T00:52:11;11.00;;;10.18;;
80694;SDS011;70059;42.702;23.312;2023-07-29T00:54:39;10.57;;;9.82;;
80694;SDS011;70059;42.702;23.312;2023-07-29T00:57:10;10.63;;;9.93;;
80694;SDS011;70059;42.702;23.312;2023-07-29T00:59:39;10.95;;;10.05;;
80694;SDS011;70059;42.702;23.312;2023-07-29T01:02:05;11.05;;;10.00;;
80694;SDS011;70059;42.702;23.312;2023-07-29T01:04:32;11.07;;;10.27;;
80694;SDS011;70059;42.702;23.312;2023-07-29T01:07:08;10.80;;;9.90;;
80694;SDS011;70059;42.702;23.312;2023-07-29T01:12:40;11.00;;;10.05;;
80694;SDS011;70059;42.702;23.312;2023-07-29T01:18:06;11.35;;;10.55;;
80694;SDS011;70059;42.702;23.312;2023-07-29T01:20:39;11.90;;;10.80;;
80694;SDS011;70059;42.702;23.312;2023-07-29T01:23:05;10.63;;;9.85;;
80694;SDS011;70059;42.702;23.312;2023-07-29T01:25:34;11.00;;;10.20;;
80694;SDS011;70059;42.702;23.312;2023-07-29T01:28:00;10.88;;;10.15;;
80694;SDS011;70059;42.702;23.312;2023-07-29T01:30:28;11.13;;;10.23;;
80694;SDS011;70059;42.702;23.312;2023-07-29T01:33:04;11.00;;;10.10;;
80694;SDS011;70059;42.702;23.312;2023-07-29T01:35:46;11.80;;;10.90;;
80694;SDS011;70059;42.702;23.312;2023-07-29T01:38:19;11.27;;;10.48;;
80694;SDS011;70059;42.702;23.312;2023-07-29T01:40:53;11.48;;;10.55;;
80694;SDS011;70059;42.702;23.312;2023-07-29T01:43:19;11.65;;;10.75;;
80694;SDS011;70059;42.702;23.312;2023-07-29T01:45:48;11.20;;;10.30;;
80694;SDS011;70059;42.702;23.312;2023-07-29T01:48:14;11.45;;;10.50;;
80694;SDS011;70059;42.702;23.312;2023-07-29T01:50:40;11.50;;;10.60;;
80694;SDS011;70059;42.702;23.312;2023-07-29T01:53:06;12.10;;;11.00;;
80694;SDS011;70059;42.702;23.312;2023-07-29T01:55:31;12.38;;;11.38;;
80694;SDS011;70059;42.702;23.312;2023-07-29T01:57:57;12.43;;;11.52;;
80694;SDS011;70059;42.702;23.312;2023-07-29T02:00:23;11.75;;;10.75;;
80694;SDS011;70059;42.702;23.312;2023-07-29T02:02:49;11.45;;;10.55;;
80694;SDS011;70059;42.702;23.312;2023-07-29T02:05:14;11.35;;;10.45;;
80694;SDS011;70059;42.702;23.312;2023-07-29T02:07:40;11.82;;;10.93;;
80694;SDS011;70059;42.702;23.312;2023-07-29T02:10:06;11.68;;;10.77;;
80694;SDS011;70059;42.702;23.312;2023-07-29T02:12:32;11.70;;;10.63;;
80694;SDS011;70059;42.702;23.312;2023-07-29T02:14:59;11.50;;;10.65;;
80694;SDS011;70059;42.702;23.312;2023-07-29T02:17:25;11.65;;;10.75;;
80694;SDS011;70059;42.702;23.312;2023-07-29T02:19:51;11.80;;;10.85;;
80694;SDS011;70059;42.702;23.312;2023-07-29T02:22:17;11.88;;;10.70;;
80694;SDS011;70059;42.702;23.312;2023-07-29T02:24:43;11.35;;;10.38;;
80694;SDS011;70059;42.702;23.312;2023-07-29T02:27:09;11.05;;;10.05;;
80694;SDS011;70059;42.702;23.312;2023-07-29T02:29:35;11.40;;;10.60;;
80694;SDS011;70059;42.702;23.312;2023-07-29T02:32:01;11.30;;;10.20;;
80694;SDS011;70059;42.702;23.312;2023-07-29T02:34:28;11.50;;;10.50;;
80694;SDS011;70059;42.702;23.312;2023-07-29T02:36:54;11.45;;;10.63;;
80694;SDS011;70059;42.702;23.312;2023-07-29T02:39:20;11.95;;;10.93;;
80694;SDS011;70059;42.702;23.312;2023-07-29T02:41:46;11.65;;;10.70;;
80694;SDS011;70059;42.702;23.312;2023-07-29T02:44:11;11.80;;;10.77;;
80694;SDS011;70059;42.702;23.312;2023-07-29T02:46:37;11.65;;;10.43;;
80694;SDS011;70059;42.702;23.312;2023-07-29T02:49:03;11.40;;;10.30;;
80694;SDS011;70059;42.702;23.312;2023-07-29T02:51:29;11.32;;;10.30;;
80694;SDS011;70059;42.702;23.312;2023-07-29T02:53:55;11.35;;;10.45;;
80694;SDS011;70059;42.702;23.312;2023-07-29T02:56:21;11.40;;;10.40;;
80694;SDS011;70059;42.702;23.312;2023-07-29T02:58:47;12.15;;;11.13;;
80694;SDS011;70059;42.702;23.312;2023-07-29T03:01:12;11.27;;;10.20;;
80694;SDS011;70059;42.702;23.312;2023-07-29T03:03:38;11.32;;;10.32;;
80694;SDS011;70059;42.702;23.312;2023-07-29T03:06:05;12.07;;;10.98;;
80694;SDS011;70059;42.702;23.312;2023-07-29T03:08:32;12.07;;;11.00;;
80694;SDS011;70059;42.702;23.312;2023-07-29T03:11:04;11.57;;;10.60;;
80694;SDS011;70059;42.702;23.312;2023-07-29T03:13:39;10.98;;;10.18;;
80694;SDS011;70059;42.702;23.312;2023-07-29T03:16:06;10.88;;;10.07;;
80694;SDS011;70059;42.702;23.312;2023-07-29T03:18:35;12.15;;;11.07;;
80694;SDS011;70059;42.702;23.312;2023-07-29T03:21:01;11.60;;;10.70;;
80694;SDS011;70059;42.702;23.312;2023-07-29T03:23:28;11.25;;;10.25;;
80694;SDS011;70059;42.702;23.312;2023-07-29T03:25:57;11.85;;;10.65;;
80694;SDS011;70059;42.702;23.312;2023-07-29T03:28:31;11.47;;;10.37;;
80694;SDS011;70059;42.702;23.312;2023-07-29T03:30:58;12.57;;;11.23;;
80694;SDS011;70059;42.702;23.312;2023-07-29T03:33:24;11.55;;;10.55;;
80694;SDS011;70059;42.702;23.312;2023-07-29T03:35:50;11.65;;;10.52;;
80694;SDS011;70059;42.702;23.312;2023-07-29T03:38:16;11.32;;;10.43;;
80694;SDS011;70059;42.702;23.312;2023-07-29T03:40:42;11.40;;;10.10;;
80694;SDS011;70059;42.702;23.312;2023-07-29T03:43:08;12.48;;;10.05;;
80694;SDS011;70059;42.702;23.312;2023-07-29T03:45:34;11.70;;;10.50;;
80694;SDS011;70059;42.702;23.312;2023-07-29T03:48:00;10.98;;;10.13;;
80694;SDS011;70059;42.702;23.312;2023-07-29T03:50:27;10.65;;;9.85;;
80694;SDS011;70059;42.702;23.312;2023-07-29T03:52:54;12.05;;;10.65;;
80694;SDS011;70059;42.702;23.312;2023-07-29T03:55:20;12.27;;;11.07;;
80694;SDS011;70059;42.702;23.312;2023-07-29T03:57:46;11.68;;;10.68;;
80694;SDS011;70059;42.702;23.312;2023-07-29T04:00:11;11.85;;;10.85;;
80694;SDS011;70059;42.702;23.312;2023-07-29T04:02:39;11.52;;;10.52;;
80694;SDS011;70059;42.702;23.312;2023-07-29T04:05:05;15.13;;;11.35;;
80694;SDS011;70059;42.702;23.312;2023-07-29T04:07:34;11.63;;;10.52;;
80694;SDS011;70059;42.702;23.312;2023-07-29T04:10:01;11.68;;;10.57;;
80694;SDS011;70059;42.702;23.312;2023-07-29T04:12:27;11.95;;;10.90;;
80694;SDS011;70059;42.702;23.312;2023-07-29T04:14:53;13.00;;;10.13;;
80694;SDS011;70059;42.702;23.312;2023-07-29T04:17:18;11.07;;;10.27;;
80694;SDS011;70059;42.702;23.312;2023-07-29T04:19:44;11.07;;;10.27;;
80694;SDS011;70059;42.702;23.312;2023-07-29T04:22:09;11.52;;;10.45;;
80694;SDS011;70059;42.702;23.312;2023-07-29T04:24:35;11.48;;;10.57;;
80694;SDS011;70059;42.702;23.312;2023-07-29T04:27:01;11.90;;;11.00;;
80694;SDS011;70059;42.702;23.312;2023-07-29T04:29:26;12.20;;;11.10;;
80694;SDS011;70059;42.702;23.312;2023-07-29T04:31:52;12.13;;;11.10;;
80694;SDS011;70059;42.702;23.312;2023-07-29T04:34:18;12.25;;;11.25;;
80694;SDS011;70059;42.702;23.312;2023-07-29T04:36:46;12.32;;;11.18;;
80694;SDS011;70059;42.702;23.312;2023-07-29T04:39:12;12.00;;;10.90;;
80694;SDS011;70059;42.702;23.312;2023-07-29T04:41:37;11.40;;;10.45;;
80694;SDS011;70059;42.702;23.312;2023-07-29T04:44:03;11.88;;;10.88;;
80694;SDS011;70059;42.702;23.312;2023-07-29T04:46:29;12.32;;;11.13;;
80694;SDS011;70059;42.702;23.312;2023-07-29T04:48:56;13.07;;;11.88;;
80694;SDS011;70059;42.702;23.312;2023-07-29T04:51:21;12.63;;;11.60;;
80694;SDS011;70059;42.702;23.312;2023-07-29T04:53:48;13.07;;;11.77;;
80694;SDS011;70059;42.702;23.312;2023-07-29T04:56:14;12.70;;;11.52;;
80694;SDS011;70059;42.702;23.312;2023-07-29T04:58:40;14.40;;;11.27;;
80694;SDS011;70059;42.702;23.312;2023-07-29T05:01:06;12.73;;;11.63;;
80694;SDS011;70059;42.702;23.312;2023-07-29T05:03:31;12.80;;;11.30;;
80694;SDS011;70059;42.702;23.312;2023-07-29T05:05:58;13.18;;;11.80;;
80694;SDS011;70059;42.702;23.312;2023-07-29T05:08:24;12.60;;;11.50;;
80694;SDS011;70059;42.702;23.312;2023-07-29T05:10:51;13.15;;;11.95;;
80694;SDS011;70059;42.702;23.312;2023-07-29T05:13:17;12.73;;;11.73;;
80694;SDS011;70059;42.702;23.312;2023-07-29T05:15:44;13.15;;;12.00;;
80694;SDS011;70059;42.702;23.312;2023-07-29T05:18:09;13.18;;;11.52;;
80694;SDS011;70059;42.702;23.312;2023-07-29T05:20:36;13.27;;;12.10;;
80694;SDS011;70059;42.702;23.312;2023-07-29T05:23:02;13.95;;;12.52;;
80694;SDS011;70059;42.702;23.312;2023-07-29T05:25:29;15.15;;;11.27;;
80694;SDS011;70059;42.702;23.312;2023-07-29T05:27:55;13.13;;;11.93;;
80694;SDS011;70059;42.702;23.312;2023-07-29T05:30:22;12.38;;;11.45;;
80694;SDS011;70059;42.702;23.312;2023-07-29T05:32:52;12.88;;;11.57;;
80694;SDS011;70059;42.702;23.312;2023-07-29T05:35:18;13.23;;;11.95;;
80694;SDS011;70059;42.702;23.312;2023-07-29T05:37:44;14.00;;;12.60;;
80694;SDS011;70059;42.702;23.312;2023-07-29T05:40:09;13.68;;;12.48;;
80694;SDS011;70059;42.702;23.312;2023-07-29T05:42:35;13.40;;;12.20;;
80694;SDS011;70059;42.702;23.312;2023-07-29T05:45:01;12.75;;;11.65;;
80694;SDS011;70059;42.702;23.312;2023-07-29T05:47:27;13.02;;;11.93;;
80694;SDS011;70059;42.702;23.312;2023-07-29T05:49:53;13.88;;;12.55;;
80694;SDS011;70059;42.702;23.312;2023-07-29T05:52:19;13.77;;;12.48;;
80694;SDS011;70059;42.702;23.312;2023-07-29T05:54:45;13.85;;;12.55;;
80694;SDS011;70059;42.702;23.312;2023-07-29T05:57:16;13.20;;;12.07;;
80694;SDS011;70059;42.702;23.312;2023-07-29T05:59:42;13.80;;;12.60;;
80694;SDS011;70059;42.702;23.312;2023-07-29T06:02:08;14.05;;;12.68;;
80694;SDS011;70059;42.702;23.312;2023-07-29T06:04:34;12.70;;;11.70;;
80694;SDS011;70059;42.702;23.312;2023-07-29T06:07:00;15.38;;;12.38;;
80694;SDS011;70059;42.702;23.312;2023-07-29T06:09:25;13.10;;;12.00;;
80694;SDS011;70059;42.702;23.312;2023-07-29T06:11:51;13.75;;;12.52;;
80694;SDS011;70059;42.702;23.312;2023-07-29T06:14:16;13.27;;;12.20;;
80694;SDS011;70059;42.702;23.312;2023-07-29T06:16:42;13.23;;;12.02;;
80694;SDS011;70059;42.702;23.312;2023-07-29T06:19:08;13.68;;;12.57;;
80694;SDS011;70059;42.702;23.312;2023-07-29T06:21:34;13.38;;;12.27;;
80694;SDS011;70059;42.702;23.312;2023-07-29T06:24:00;14.02;;;12.60;;
80694;SDS011;70059;42.702;23.312;2023-07-29T06:26:27;12.18;;;11.18;;
80694;SDS011;70059;42.702;23.312;2023-07-29T06:28:53;12.75;;;11.63;;
80694;SDS011;70059;42.702;23.312;2023-07-29T06:31:19;13.40;;;12.18;;
80694;SDS011;70059;42.702;23.312;2023-07-29T06:33:44;13.45;;;12.18;;
80694;SDS011;70059;42.702;23.312;2023-07-29T06:36:11;13.85;;;12.40;;
80694;SDS011;70059;42.702;23.312;2023-07-29T06:38:39;14.38;;;12.93;;
80694;SDS011;70059;42.702;23.312;2023-07-29T06:41:06;14.93;;;12.45;;
80694;SDS011;70059;42.702;23.312;2023-07-29T06:43:34;13.98;;;12.68;;
80694;SDS011;70059;42.702;23.312;2023-07-29T06:46:00;14.20;;;12.70;;
80694;SDS011;70059;42.702;23.312;2023-07-29T06:48:25;14.57;;;12.95;;
80694;SDS011;70059;42.702;23.312;2023-07-29T06:50:51;17.10;;;12.38;;
80694;SDS011;70059;42.702;23.312;2023-07-29T06:53:17;13.82;;;12.48;;
80694;SDS011;70059;42.702;23.312;2023-07-29T06:55:43;13.77;;;12.00;;
80694;SDS011;70059;42.702;23.312;2023-07-29T06:58:09;13.98;;;12.40;;
80694;SDS011;70059;42.702;23.312;2023-07-29T07:00:35;19.10;;;12.77;;
80694;SDS011;70059;42.702;23.312;2023-07-29T07:03:01;15.70;;;13.55;;
80694;SDS011;70059;42.702;23.312;2023-07-29T07:05:28;14.68;;;13.23;;
80694;SDS011;70059;42.702;23.312;2023-07-29T07:07:55;14.52;;;13.10;;
80694;SDS011;70059;42.702;23.312;2023-07-29T07:10:20;17.05;;;12.95;;
80694;SDS011;70059;42.702;23.312;2023-07-29T07:12:46;16.17;;;12.63;;
80694;SDS011;70059;42.702;23.312;2023-07-29T07:15:12;14.50;;;13.10;;
80694;SDS011;70059;42.702;23.312;2023-07-29T07:17:37;11.93;;;11.02;;
80694;SDS011;70059;42.702;23.312;2023-07-29T07:20:03;14.05;;;12.57;;
80694;SDS011;70059;42.702;23.312;2023-07-29T07:22:30;33.70;;;13.70;;
80694;SDS011;70059;42.702;23.312;2023-07-29T07:24:55;18.95;;;12.70;;
80694;SDS011;70059;42.702;23.312;2023-07-29T07:27:21;14.20;;;12.77;;
80694;SDS011;70059;42.702;23.312;2023-07-29T07:29:47;14.57;;;13.20;;
80694;SDS011;70059;42.702;23.312;2023-07-29T07:32:12;15.00;;;13.20;;
80694;SDS011;70059;42.702;23.312;2023-07-29T07:34:39;13.45;;;12.10;;
80694;SDS011;70059;42.702;23.312;2023-07-29T07:37:05;14.02;;;12.80;;
80694;SDS011;70059;42.702;23.312;2023-07-29T07:39:31;13.50;;;12.32;;
80694;SDS011;70059;42.702;23.312;2023-07-29T07:41:57;13.98;;;12.57;;
80694;SDS011;70059;42.702;23.312;2023-07-29T07:44:23;13.32;;;11.98;;
80694;SDS011;70059;42.702;23.312;2023-07-29T07:46:51;13.43;;;12.20;;
80694;SDS011;70059;42.702;23.312;2023-07-29T07:49:20;13.55;;;12.25;;
80694;SDS011;70059;42.702;23.312;2023-07-29T07:51:46;14.00;;;12.60;;
80694;SDS011;70059;42.702;23.312;2023-07-29T07:54:12;15.68;;;11.00;;
80694;SDS011;70059;42.702;23.312;2023-07-29T07:56:43;13.10;;;11.90;;
80694;SDS011;70059;42.702;23.312;2023-07-29T07:59:08;13.23;;;11.85;;
80694;SDS011;70059;42.702;23.312;2023-07-29T08:01:39;13.82;;;12.52;;
80694;SDS011;70059;42.702;23.312;2023-07-29T08:04:05;13.77;;;12.77;;
80694;SDS011;70059;42.702;23.312;2023-07-29T08:06:31;17.05;;;12.82;;
80694;SDS011;70059;42.702;23.312;2023-07-29T08:08:58;13.95;;;12.60;;
80694;SDS011;70059;42.702;23.312;2023-07-29T08:11:24;14.13;;;12.82;;
80694;SDS011;70059;42.702;23.312;2023-07-29T08:13:50;15.10;;;13.57;;
80694;SDS011;70059;42.702;23.312;2023-07-29T08:16:15;13.68;;;12.52;;
80694;SDS011;70059;42.702;23.312;2023-07-29T08:18:42;15.25;;;13.27;;
80694;SDS011;70059;42.702;23.312;2023-07-29T08:21:08;13.32;;;12.23;;
80694;SDS011;70059;42.702;23.312;2023-07-29T08:23:34;14.40;;;13.15;;
80694;SDS011;70059;42.702;23.312;2023-07-29T08:26:02;15.15;;;12.73;;
80694;SDS011;70059;42.702;23.312;2023-07-29T08:28:34;14.18;;;12.88;;
80694;SDS011;70059;42.702;23.312;2023-07-29T08:31:01;13.70;;;12.60;;
80694;SDS011;70059;42.702;23.312;2023-07-29T08:33:28;13.63;;;12.57;;
80694;SDS011;70059;42.702;23.312;2023-07-29T08:35:54;14.00;;;12.50;;
80694;SDS011;70059;42.702;23.312;2023-07-29T08:38:20;14.38;;;12.63;;
80694;SDS011;70059;42.702;23.312;2023-07-29T08:40:50;16.15;;;12.50;;
80694;SDS011;70059;42.702;23.312;2023-07-29T08:43:22;12.73;;;11.70;;
80694;SDS011;70059;42.702;23.312;2023-07-29T08:45:55;13.65;;;12.30;;
80694;SDS011;70059;42.702;23.312;2023-07-29T08:48:23;13.85;;;12.60;;
80694;SDS011;70059;42.702;23.312;2023-07-29T08:51:10;13.95;;;12.23;;
80694;SDS011;70059;42.702;23.312;2023-07-29T08:53:37;12.82;;;11.57;;
80694;SDS011;70059;42.702;23.312;2023-07-29T08:56:04;12.45;;;11.45;;
80694;SDS011;70059;42.702;23.312;2023-07-29T08:58:35;11.98;;;10.77;;
80694;SDS011;70059;42.702;23.312;2023-07-29T09:01:02;11.48;;;10.70;;
80694;SDS011;70059;42.702;23.312;2023-07-29T09:03:33;11.98;;;10.77;;
80694;SDS011;70059;42.702;23.312;2023-07-29T09:05:59;11.20;;;10.38;;
80694;SDS011;70059;42.702;23.312;2023-07-29T09:08:27;10.77;;;9.98;;
80694;SDS011;70059;42.702;23.312;2023-07-29T09:10:54;10.73;;;10.13;;
80694;SDS011;70059;42.702;23.312;2023-07-29T09:13:21;10.45;;;9.85;;
80694;SDS011;70059;42.702;23.312;2023-07-29T09:15:47;11.73;;;10.93;;
80694;SDS011;70059;42.702;23.312;2023-07-29T09:18:16;12.00;;;11.10;;
80694;SDS011;70059;42.702;23.312;2023-07-29T09:20:45;11.50;;;10.70;;
80694;SDS011;70059;42.702;23.312;2023-07-29T09:23:12;10.57;;;9.90;;
80694;SDS011;70059;42.702;23.312;2023-07-29T09:25:39;11.18;;;10.27;;
80694;SDS011;70059;42.702;23.312;2023-07-29T09:28:09;11.30;;;10.50;;
80694;SDS011;70059;42.702;23.312;2023-07-29T09:30:37;11.85;;;10.95;;
80694;SDS011;70059;42.702;23.312;2023-07-29T09:33:10;11.75;;;10.95;;
80694;SDS011;70059;42.702;23.312;2023-07-29T09:35:39;11.60;;;10.70;;
80694;SDS011;70059;42.702;23.312;2023-07-29T09:38:05;11.27;;;10.55;;
80694;SDS011;70059;42.702;23.312;2023-07-29T09:40:39;11.65;;;10.85;;
80694;SDS011;70059;42.702;23.312;2023-07-29T09:43:06;12.50;;;10.95;;
80694;SDS011;70059;42.702;23.312;2023-07-29T09:45:35;11.52;;;10.40;;
80694;SDS011;70059;42.702;23.312;2023-07-29T09:48:03;11.18;;;10.18;;
80694;SDS011;70059;42.702;23.312;2023-07-29T09:50:42;10.75;;;9.90;;
80694;SDS011;70059;42.702;23.312;2023-07-29T09:53:07;9.95;;;9.20;;
80694;SDS011;70059;42.702;23.312;2023-07-29T09:55:33;10.48;;;9.57;;
80694;SDS011;70059;42.702;23.312;2023-07-29T09:58:00;10.13;;;9.43;;
80694;SDS011;70059;42.702;23.312;2023-07-29T10:02:55;10.32;;;9.30;;
80694;SDS011;70059;42.702;23.312;2023-07-29T10:05:22;10.10;;;9.40;;
80694;SDS011;70059;42.702;23.312;2023-07-29T10:07:50;9.45;;;8.75;;
80694;SDS011;70059;42.702;23.312;2023-07-29T10:10:17;15.20;;;10.10;;
80694;SDS011;70059;42.702;23.312;2023-07-29T10:12:43;10.60;;;9.77;;
80694;SDS011;70059;42.702;23.312;2023-07-29T10:15:10;10.98;;;10.18;;
80694;SDS011;70059;42.702;23.312;2023-07-29T10:17:36;10.55;;;9.80;;
80694;SDS011;70059;42.702;23.312;2023-07-29T10:20:03;10.70;;;9.80;;
80694;SDS011;70059;42.702;23.312;2023-07-29T10:22:35;9.70;;;9.10;;
80694;SDS011;70059;42.702;23.312;2023-07-29T10:25:10;9.30;;;8.70;;
80694;SDS011;70059;42.702;23.312;2023-07-29T10:27:46;10.10;;;9.27;;
80694;SDS011;70059;42.702;23.312;2023-07-29T10:30:20;9.48;;;8.95;;
80694;SDS011;70059;42.702;23.312;2023-07-29T10:32:49;9.73;;;8.98;;
80694;SDS011;70059;42.702;23.312;2023-07-29T10:35:17;9.25;;;8.70;;
80694;SDS011;70059;42.702;23.312;2023-07-29T10:37:44;9.85;;;9.30;;
80694;SDS011;70059;42.702;23.312;2023-07-29T10:40:11;9.60;;;8.77;;
80694;SDS011;70059;42.702;23.312;2023-07-29T10:42:38;10.68;;;9.20;;
80694;SDS011;70059;42.702;23.312;2023-07-29T10:45:24;10.80;;;8.98;;
80694;SDS011;70059;42.702;23.312;2023-07-29T10:47:52;9.55;;;8.70;;
80694;SDS011;70059;42.702;23.312;2023-07-29T10:50:19;8.88;;;8.27;;
80694;SDS011;70059;42.702;23.312;2023-07-29T10:52:49;9.23;;;8.63;;
80694;SDS011;70059;42.702;23.312;2023-07-29T10:58:05;9.93;;;8.85;;
80694;SDS011;70059;42.702;23.312;2023-07-29T11:00:31;9.75;;;9.15;;
80694;SDS011;70059;42.702;23.312;2023-07-29T11:03:07;9.13;;;8.45;;
80694;SDS011;70059;42.702;23.312;2023-07-29T11:05:52;9.68;;;8.88;;
80694;SDS011;70059;42.702;23.312;2023-07-29T11:11:06;9.07;;;8.48;;
80694;SDS011;70059;42.702;23.312;2023-07-29T11:13:36;8.50;;;7.78;;
80694;SDS011;70059;42.702;23.312;2023-07-29T11:16:03;9.40;;;8.70;;
80694;SDS011;70059;42.702;23.312;2023-07-29T11:18:30;9.90;;;9.40;;
80694;SDS011;70059;42.702;23.312;2023-07-29T11:21:00;9.65;;;9.15;;
80694;SDS011;70059;42.702;23.312;2023-07-29T11:23:34;8.77;;;8.05;;
80694;SDS011;70059;42.702;23.312;2023-07-29T11:26:01;12.40;;;9.45;;
80694;SDS011;70059;42.702;23.312;2023-07-29T11:28:28;10.10;;;9.50;;
80694;SDS011;70059;42.702;23.312;2023-07-29T11:30:55;9.40;;;8.70;;
80694;SDS011;70059;42.702;23.312;2023-07-29T11:33:22;10.15;;;9.38;;
80694;SDS011;70059;42.702;23.312;2023-07-29T11:35:53;10.60;;;9.90;;
80694;SDS011;70059;42.702;23.312;2023-07-29T11:38:20;9.80;;;8.90;;
80694;SDS011;70059;42.702;23.312;2023-07-29T11:40:56;10.43;;;9.63;;
80694;SDS011;70059;42.702;23.312;2023-07-29T11:43:28;9.82;;;9.07;;
80694;SDS011;70059;42.702;23.312;2023-07-29T11:45:53;9.52;;;8.93;;
80694;SDS011;70059;42.702;23.312;2023-07-29T11:48:30;9.95;;;9.35;;
80694;SDS011;70059;42.702;23.312;2023-07-29T11:50:57;10.07;;;9.27;;
80694;SDS011;70059;42.702;23.312;2023-07-29T11:53:25;10.23;;;9.40;;
80694;SDS011;70059;42.702;23.312;2023-07-29T11:55:52;9.93;;;9.32;;
80694;SDS011;70059;42.702;23.312;2023-07-29T11:58:20;30.85;;;9.40;;
80694;SDS011;70059;42.702;23.312;2023-07-29T12:00:46;9.60;;;8.77;;
80694;SDS011;70059;42.702;23.312;2023-07-29T12:09:55;10.20;;;9.50;;
80694;SDS011;70059;42.702;23.312;2023-07-29T12:12:24;10.10;;;9.40;;
80694;SDS011;70059;42.702;23.312;2023-07-29T12:14:50;10.13;;;9.48;;
80694;SDS011;70059;42.702;23.312;2023-07-29T12:17:15;10.25;;;9.65;;
80694;SDS011;70059;42.702;23.312;2023-07-29T12:19:41;10.15;;;9.30;;
80694;SDS011;70059;42.702;23.312;2023-07-29T12:22:08;10.13;;;9.48;;
80694;SDS011;70059;42.702;23.312;2023-07-29T12:24:35;10.13;;;9.52;;
80694;SDS011;70059;42.702;23.312;2023-07-29T12:27:05;10.20;;;9.60;;
80694;SDS011;70059;42.702;23.312;2023-07-29T12:29:39;9.45;;;8.95;;
80694;SDS011;70059;42.702;23.312;2023-07-29T12:32:07;9.02;;;8.50;;
80694;SDS011;70059;42.702;23.312;2023-07-29T12:34:33;9.02;;;8.52;;
80694;SDS011;70059;42.702;23.312;2023-07-29T12:37:02;9.85;;;9.25;;
80694;SDS011;70059;42.702;23.312;2023-07-29T12:39:30;10.20;;;9.38;;
80694;SDS011;70059;42.702;23.312;2023-07-29T12:41:58;9.73;;;9.18;;
80694;SDS011;70059;42.702;23.312;2023-07-29T12:44:29;10.05;;;9.45;;
80694;SDS011;70059;42.702;23.312;2023-07-29T12:46:56;10.10;;;9.50;;
80694;SDS011;70059;42.702;23.312;2023-07-29T12:49:22;10.05;;;9.35;;
80694;SDS011;70059;42.702;23.312;2023-07-29T12:51:48;10.20;;;9.57;;
80694;SDS011;70059;42.702;23.312;2023-07-29T12:54:15;9.85;;;9.10;;
80694;SDS011;70059;42.702;23.312;2023-07-29T12:56:40;9.70;;;9.10;;
80694;SDS011;70059;42.702;23.312;2023-07-29T12:59:06;9.75;;;9.05;;
80694;SDS011;70059;42.702;23.312;2023-07-29T13:01:32;9.80;;;9.30;;
80694;SDS011;70059;42.702;23.312;2023-07-29T13:03:58;9.52;;;9.02;;
80694;SDS011;70059;42.702;23.312;2023-07-29T13:06:24;10.10;;;9.50;;
80694;SDS011;70059;42.702;23.312;2023-07-29T13:08:50;11.73;;;10.93;;
80694;SDS011;70059;42.702;23.312;2023-07-29T13:11:16;9.70;;;9.10;;
80694;SDS011;70059;42.702;23.312;2023-07-29T13:13:41;10.40;;;9.60;;
80694;SDS011;70059;42.702;23.312;2023-07-29T13:16:07;10.70;;;10.00;;
80694;SDS011;70059;42.702;23.312;2023-07-29T13:18:33;9.48;;;8.85;;
80694;SDS011;70059;42.702;23.312;2023-07-29T13:20:59;10.25;;;9.35;;
80694;SDS011;70059;42.702;23.312;2023-07-29T13:23:25;10.20;;;9.30;;
80694;SDS011;70059;42.702;23.312;2023-07-29T13:25:51;11.95;;;10.80;;
80694;SDS011;70059;42.702;23.312;2023-07-29T13:28:18;10.80;;;10.02;;
80694;SDS011;70059;42.702;23.312;2023-07-29T13:30:44;11.38;;;10.25;;
80694;SDS011;70059;42.702;23.312;2023-07-29T13:33:10;10.48;;;9.75;;
80694;SDS011;70059;42.702;23.312;2023-07-29T13:35:36;10.85;;;10.05;;
80694;SDS011;70059;42.702;23.312;2023-07-29T13:38:02;11.60;;;10.60;;
80694;SDS011;70059;42.702;23.312;2023-07-29T13:40:28;11.23;;;10.40;;
80694;SDS011;70059;42.702;23.312;2023-07-29T13:42:54;10.50;;;9.63;;
80694;SDS011;70059;42.702;23.312;2023-07-29T13:45:20;10.15;;;9.50;;
80694;SDS011;70059;42.702;23.312;2023-07-29T13:47:46;10.05;;;9.35;;
80694;SDS011;70059;42.702;23.312;2023-07-29T13:50:13;10.95;;;9.48;;
80694;SDS011;70059;42.702;23.312;2023-07-29T13:52:39;9.95;;;9.35;;
80694;SDS011;70059;42.702;23.312;2023-07-29T13:55:05;10.48;;;9.70;;
80694;SDS011;70059;42.702;23.312;2023-07-29T13:57:32;10.77;;;9.88;;
80694;SDS011;70059;42.702;23.312;2023-07-29T13:59:59;8.98;;;8.48;;
80694;SDS011;70059;42.702;23.312;2023-07-29T14:02:24;9.98;;;9.27;;
80694;SDS011;70059;42.702;23.312;2023-07-29T14:04:56;10.10;;;9.40;;
80694;SDS011;70059;42.702;23.312;2023-07-29T14:07:22;8.60;;;8.10;;
80694;SDS011;70059;42.702;23.312;2023-07-29T14:09:48;9.30;;;8.80;;
80694;SDS011;70059;42.702;23.312;2023-07-29T14:12:18;9.43;;;8.77;;
80694;SDS011;70059;42.702;23.312;2023-07-29T14:14:48;9.75;;;8.95;;
80694;SDS011;70059;42.702;23.312;2023-07-29T14:17:18;10.10;;;9.30;;
80694;SDS011;70059;42.702;23.312;2023-07-29T14:19:49;10.38;;;9.57;;
80694;SDS011;70059;42.702;23.312;2023-07-29T14:22:15;10.40;;;9.57;;
80694;SDS011;70059;42.702;23.312;2023-07-29T14:24:40;11.40;;;10.52;;
80694;SDS011;70059;42.702;23.312;2023-07-29T14:27:06;10.70;;;10.00;;
80694;SDS011;70059;42.702;23.312;2023-07-29T14:29:36;13.68;;;12.05;;
80694;SDS011;70059;42.702;23.312;2023-07-29T14:32:02;15.98;;;14.57;;
80694;SDS011;70059;42.702;23.312;2023-07-29T14:34:28;12.30;;;11.30;;